sensor_id;sensor_type;location;lat;lon;timestamp;P1;durP1;ratioP1;P2;durP2;ratioP2
3601;SDS011;1815;50.950;6.920;2023-07-28T00:00:02;1.33;;;0.70;;
3601;SDS011;1815;50.950;6.920;2023-07-28T00:02:35;1.50;;;0.77;;
3601;SDS011;1815;50.950;6.920;2023-07-28T00:05:01;2.07;;;0.90;;
3601;SDS011;1815;50.950;6.920;2023-07-28T00:07:27;1.30;;;0.70;;
3601;SDS011;1815;50.950;6.920;2023-07-28T00:09:52;2.20;;;0.70;;
3601;SDS011;1815;50.950;6.920;2023-07-28T00:12:18;1.60;;;0.90;;
3601;SDS011;1815;50.950;6.920;2023-07-28T00:14:44;1.50;;;0.70;;
3601;SDS011;1815;50.950;6.920;2023-07-28T00:17:10;1.70;;;1.00;;
3601;SDS011;1815;50.950;6.920;2023-07-28T00:19:36;1.70;;;0.90;;
3601;SDS011;1815;50.950;6.920;2023-07-28T00:22:01;1.70;;;0.70;;
3601;SDS011;1815;50.950;6.920;2023-07-28T00:24:27;1.50;;;0.83;;
3601;SDS011;1815;50.950;6.920;2023-07-28T00:26:53;2.40;;;0.87;;
3601;SDS011;1815;50.950;6.920;2023-07-28T00:32:08;2.37;;;0.80;;
3601;SDS011;1815;50.950;6.920;2023-07-28T00:34:35;2.20;;;0.70;;
3601;SDS011;1815;50.950;6.920;2023-07-28T00:37:01;1.40;;;0.80;;
3601;SDS011;1815;50.950;6.920;2023-07-28T00:39:27;1.47;;;0.70;;
3601;SDS011;1815;50.950;6.920;2023-07-28T00:41:52;1.70;;;0.80;;
3601;SDS011;1815;50.950;6.920;2023-07-28T00:44:18;1.80;;;0.70;;
3601;SDS011;1815;50.950;6.920;2023-07-28T00:46:45;1.40;;;0.60;;
3601;SDS011;1815;50.950;6.920;2023-07-28T00:49:11;1.40;;;0.63;;
3601;SDS011;1815;50.950;6.920;2023-07-28T00:51:37;2.23;;;0.80;;
3601;SDS011;1815;50.950;6.920;2023-07-28T00:54:06;1.57;;;0.73;;
3601;SDS011;1815;50.950;6.920;2023-07-28T00:56:32;1.70;;;0.83;;
3601;SDS011;1815;50.950;6.920;2023-07-28T00:58:59;1.77;;;0.60;;
3601;SDS011;1815;50.950;6.920;2023-07-28T01:01:26;1.60;;;0.80;;
3601;SDS011;1815;50.950;6.920;2023-07-28T01:03:52;1.63;;;1.03;;
3601;SDS011;1815;50.950;6.920;2023-07-28T01:06:20;1.30;;;0.60;;
3601;SDS011;1815;50.950;6.920;2023-07-28T01:09:02;1.50;;;0.80;;
3601;SDS011;1815;50.950;6.920;2023-07-28T01:11:31;1.30;;;0.70;;
3601;SDS011;1815;50.950;6.920;2023-07-28T01:13:57;1.90;;;0.80;;
3601;SDS011;1815;50.950;6.920;2023-07-28T01:19:33;1.40;;;0.60;;
3601;SDS011;1815;50.950;6.920;2023-07-28T01:25:06;1.40;;;0.60;;
3601;SDS011;1815;50.950;6.920;2023-07-28T01:27:54;1.80;;;0.50;;
3601;SDS011;1815;50.950;6.920;2023-07-28T01:30:21;1.20;;;0.60;;
3601;SDS011;1815;50.950;6.920;2023-07-28T01:36:30;1.33;;;0.50;;
3601;SDS011;1815;50.950;6.920;2023-07-28T01:38:56;2.50;;;0.60;;
3601;SDS011;1815;50.950;6.920;2023-07-28T01:41:22;1.27;;;0.50;;
3601;SDS011;1815;50.950;6.920;2023-07-28T01:43:48;1.70;;;0.60;;
3601;SDS011;1815;50.950;6.920;2023-07-28T01:46:13;2.50;;;0.53;;
3601;SDS011;1815;50.950;6.920;2023-07-28T01:48:39;1.13;;;0.40;;
3601;SDS011;1815;50.950;6.920;2023-07-28T01:51:05;1.20;;;0.50;;
3601;SDS011;1815;50.950;6.920;2023-07-28T01:53:31;1.20;;;0.50;;
3601;SDS011;1815;50.950;6.920;2023-07-28T01:55:56;1.30;;;0.50;;
3601;SDS011;1815;50.950;6.920;2023-07-28T01:58:22;1.20;;;0.50;;
3601;SDS011;1815;50.950;6.920;2023-07-28T02:00:48;1.93;;;0.60;;
3601;SDS011;1815;50.950;6.920;2023-07-28T02:03:14;1.53;;;0.50;;
3601;SDS011;1815;50.950;6.920;2023-07-28T02:05:39;1.33;;;0.53;;
3601;SDS011;1815;50.950;6.920;2023-07-28T02:08:05;1.30;;;0.60;;
3601;SDS011;1815;50.950;6.920;2023-07-28T02:10:31;1.17;;;0.50;;
3601;SDS011;1815;50.950;6.920;2023-07-28T02:12:56;1.30;;;0.40;;
3601;SDS011;1815;50.950;6.920;2023-07-28T02:15:22;1.30;;;0.50;;
3601;SDS011;1815;50.950;6.920;2023-07-28T02:17:48;1.97;;;0.60;;
3601;SDS011;1815;50.950;6.920;2023-07-28T02:20:14;1.10;;;0.50;;
3601;SDS011;1815;50.950;6.920;2023-07-28T02:22:40;1.20;;;0.50;;
3601;SDS011;1815;50.950;6.920;2023-07-28T02:25:07;1.40;;;0.50;;
3601;SDS011;1815;50.950;6.920;2023-07-28T02:27:34;1.37;;;0.50;;
3601;SDS011;1815;50.950;6.920;2023-07-28T02:29:59;1.30;;;0.50;;
3601;SDS011;1815;50.950;6.920;2023-07-28T02:32:27;2.03;;;0.60;;
3601;SDS011;1815;50.950;6.920;2023-07-28T02:34:54;1.87;;;0.50;;
3601;SDS011;1815;50.950;6.920;2023-07-28T02:37:20;1.30;;;0.50;;
3601;SDS011;1815;50.950;6.920;2023-07-28T02:39:45;1.53;;;0.50;;
3601;SDS011;1815;50.950;6.920;2023-07-28T02:42:12;3.17;;;0.50;;
3601;SDS011;1815;50.950;6.920;2023-07-28T02:44:38;1.20;;;0.50;;
3601;SDS011;1815;50.950;6.920;2023-07-28T02:47:04;1.63;;;0.50;;
3601;SDS011;1815;50.950;6.920;2023-07-28T02:49:30;1.10;;;0.40;;
3601;SDS011;1815;50.950;6.920;2023-07-28T02:51:56;5.13;;;0.50;;
3601;SDS011;1815;50.950;6.920;2023-07-28T02:54:22;1.40;;;0.50;;
3601;SDS011;1815;50.950;6.920;2023-07-28T02:56:51;4.70;;;0.50;;
3601;SDS011;1815;50.950;6.920;2023-07-28T02:59:17;1.50;;;0.60;;
3601;SDS011;1815;50.950;6.920;2023-07-28T03:01:43;2.23;;;0.50;;
3601;SDS011;1815;50.950;6.920;2023-07-28T03:04:09;1.87;;;0.57;;
3601;SDS011;1815;50.950;6.920;2023-07-28T03:06:58;1.30;;;0.60;;
3601;SDS011;1815;50.950;6.920;2023-07-28T03:09:24;1.57;;;0.60;;
3601;SDS011;1815;50.950;6.920;2023-07-28T03:11:58;1.20;;;0.53;;
3601;SDS011;1815;50.950;6.920;2023-07-28T03:14:24;1.30;;;0.60;;
3601;SDS011;1815;50.950;6.920;2023-07-28T03:16:51;1.40;;;0.67;;
3601;SDS011;1815;50.950;6.920;2023-07-28T03:19:17;1.40;;;0.80;;
3601;SDS011;1815;50.950;6.920;2023-07-28T03:21:43;1.50;;;0.70;;
3601;SDS011;1815;50.950;6.920;2023-07-28T03:24:09;1.40;;;0.60;;
3601;SDS011;1815;50.950;6.920;2023-07-28T03:26:34;1.30;;;0.73;;
3601;SDS011;1815;50.950;6.920;2023-07-28T03:29:01;1.20;;;0.60;;
3601;SDS011;1815;50.950;6.920;2023-07-28T03:31:27;1.80;;;0.67;;
3601;SDS011;1815;50.950;6.920;2023-07-28T03:33:53;2.80;;;0.60;;
3601;SDS011;1815;50.950;6.920;2023-07-28T03:36:19;1.27;;;0.70;;
3601;SDS011;1815;50.950;6.920;2023-07-28T03:38:45;2.10;;;0.70;;
3601;SDS011;1815;50.950;6.920;2023-07-28T03:41:13;1.50;;;0.60;;
3601;SDS011;1815;50.950;6.920;2023-07-28T03:43:39;1.70;;;0.50;;
3601;SDS011;1815;50.950;6.920;2023-07-28T03:46:06;1.57;;;0.70;;
3601;SDS011;1815;50.950;6.920;2023-07-28T03:48:32;1.40;;;0.57;;
3601;SDS011;1815;50.950;6.920;2023-07-28T03:50:58;1.40;;;0.90;;
3601;SDS011;1815;50.950;6.920;2023-07-28T03:53:23;1.57;;;0.70;;
3601;SDS011;1815;50.950;6.920;2023-07-28T03:55:49;1.47;;;0.70;;
3601;SDS011;1815;50.950;6.920;2023-07-28T03:58:15;2.00;;;0.77;;
3601;SDS011;1815;50.950;6.920;2023-07-28T04:00:41;1.63;;;0.70;;
3601;SDS011;1815;50.950;6.920;2023-07-28T04:03:06;1.33;;;0.70;;
3601;SDS011;1815;50.950;6.920;2023-07-28T04:05:32;2.60;;;0.73;;
3601;SDS011;1815;50.950;6.920;2023-07-28T04:07:58;2.53;;;0.80;;
3601;SDS011;1815;50.950;6.920;2023-07-28T04:10:23;1.77;;;0.70;;
3601;SDS011;1815;50.950;6.920;2023-07-28T04:12:49;1.40;;;0.60;;
3601;SDS011;1815;50.950;6.920;2023-07-28T04:15:15;1.70;;;0.80;;
3601;SDS011;1815;50.950;6.920;2023-07-28T04:17:40;3.67;;;0.80;;
3601;SDS011;1815;50.950;6.920;2023-07-28T04:20:06;1.50;;;0.60;;
3601;SDS011;1815;50.950;6.920;2023-07-28T04:22:32;1.50;;;0.73;;
3601;SDS011;1815;50.950;6.920;2023-07-28T04:24:58;1.30;;;0.70;;
3601;SDS011;1815;50.950;6.920;2023-07-28T04:27:24;1.20;;;0.67;;
3601;SDS011;1815;50.950;6.920;2023-07-28T04:29:58;1.60;;;0.70;;
3601;SDS011;1815;50.950;6.920;2023-07-28T04:32:24;2.27;;;0.60;;
3601;SDS011;1815;50.950;6.920;2023-07-28T04:34:51;1.20;;;0.60;;
3601;SDS011;1815;50.950;6.920;2023-07-28T04:37:45;1.50;;;0.70;;
3601;SDS011;1815;50.950;6.920;2023-07-28T04:40:14;1.73;;;0.60;;
3601;SDS011;1815;50.950;6.920;2023-07-28T04:42:40;4.00;;;0.70;;
3601;SDS011;1815;50.950;6.920;2023-07-28T04:45:06;1.20;;;0.53;;
3601;SDS011;1815;50.950;6.920;2023-07-28T04:47:39;2.30;;;0.70;;
3601;SDS011;1815;50.950;6.920;2023-07-28T04:50:17;1.87;;;0.60;;
3601;SDS011;1815;50.950;6.920;2023-07-28T04:56:08;1.90;;;0.80;;
3601;SDS011;1815;50.950;6.920;2023-07-28T04:59:26;1.67;;;0.60;;
3601;SDS011;1815;50.950;6.920;2023-07-28T05:02:13;1.93;;;0.80;;
3601;SDS011;1815;50.950;6.920;2023-07-28T05:05:23;1.67;;;0.60;;
3601;SDS011;1815;50.950;6.920;2023-07-28T05:07:52;2.17;;;0.70;;
3601;SDS011;1815;50.950;6.920;2023-07-28T05:11:21;2.60;;;0.60;;
3601;SDS011;1815;50.950;6.920;2023-07-28T05:13:47;1.60;;;0.67;;
3601;SDS011;1815;50.950;6.920;2023-07-28T05:16:13;1.47;;;0.70;;
3601;SDS011;1815;50.950;6.920;2023-07-28T05:19:07;2.10;;;0.70;;
3601;SDS011;1815;50.950;6.920;2023-07-28T05:22:02;2.27;;;0.60;;
3601;SDS011;1815;50.950;6.920;2023-07-28T05:24:43;1.30;;;0.60;;
3601;SDS011;1815;50.950;6.920;2023-07-28T05:27:10;1.70;;;0.70;;
3601;SDS011;1815;50.950;6.920;2023-07-28T05:29:37;1.40;;;0.60;;
3601;SDS011;1815;50.950;6.920;2023-07-28T05:32:05;1.30;;;0.60;;
3601;SDS011;1815;50.950;6.920;2023-07-28T05:34:41;1.20;;;0.60;;
3601;SDS011;1815;50.950;6.920;2023-07-28T05:37:07;4.03;;;0.83;;
3601;SDS011;1815;50.950;6.920;2023-07-28T05:39:33;1.70;;;0.63;;
3601;SDS011;1815;50.950;6.920;2023-07-28T05:41:59;1.20;;;0.50;;
3601;SDS011;1815;50.950;6.920;2023-07-28T05:44:25;1.50;;;0.50;;
3601;SDS011;1815;50.950;6.920;2023-07-28T05:46:51;2.13;;;0.53;;
3601;SDS011;1815;50.950;6.920;2023-07-28T05:49:17;1.20;;;0.50;;
3601;SDS011;1815;50.950;6.920;2023-07-28T05:51:43;1.50;;;0.60;;
3601;SDS011;1815;50.950;6.920;2023-07-28T05:54:12;1.30;;;0.60;;
3601;SDS011;1815;50.950;6.920;2023-07-28T05:56:41;1.33;;;0.50;;
3601;SDS011;1815;50.950;6.920;2023-07-28T05:59:07;2.07;;;0.67;;
3601;SDS011;1815;50.950;6.920;2023-07-28T06:01:33;2.13;;;0.70;;
3601;SDS011;1815;50.950;6.920;2023-07-28T06:04:28;1.60;;;0.60;;
3601;SDS011;1815;50.950;6.920;2023-07-28T06:06:57;2.00;;;0.60;;
3601;SDS011;1815;50.950;6.920;2023-07-28T06:09:23;1.20;;;0.53;;
3601;SDS011;1815;50.950;6.920;2023-07-28T06:11:49;1.20;;;0.57;;
3601;SDS011;1815;50.950;6.920;2023-07-28T06:14:15;1.97;;;0.57;;
3601;SDS011;1815;50.950;6.920;2023-07-28T06:16:41;2.03;;;0.50;;
3601;SDS011;1815;50.950;6.920;2023-07-28T06:19:07;1.37;;;0.60;;
3601;SDS011;1815;50.950;6.920;2023-07-28T06:21:34;1.30;;;0.60;;
3601;SDS011;1815;50.950;6.920;2023-07-28T06:24:00;1.17;;;0.50;;
3601;SDS011;1815;50.950;6.920;2023-07-28T06:26:26;1.23;;;0.50;;
3601;SDS011;1815;50.950;6.920;2023-07-28T06:28:52;1.23;;;0.50;;
3601;SDS011;1815;50.950;6.920;2023-07-28T06:31:18;1.50;;;0.60;;
3601;SDS011;1815;50.950;6.920;2023-07-28T06:33:44;1.20;;;0.53;;
3601;SDS011;1815;50.950;6.920;2023-07-28T06:36:09;1.50;;;0.70;;
3601;SDS011;1815;50.950;6.920;2023-07-28T06:38:35;2.40;;;0.70;;
3601;SDS011;1815;50.950;6.920;2023-07-28T06:41:01;1.80;;;1.10;;
3601;SDS011;1815;50.950;6.920;2023-07-28T06:43:27;1.73;;;0.80;;
3601;SDS011;1815;50.950;6.920;2023-07-28T06:45:53;2.47;;;0.60;;
3601;SDS011;1815;50.950;6.920;2023-07-28T06:48:19;1.70;;;0.60;;
3601;SDS011;1815;50.950;6.920;2023-07-28T06:50:45;1.20;;;0.60;;
3601;SDS011;1815;50.950;6.920;2023-07-28T06:53:11;4.50;;;0.67;;
3601;SDS011;1815;50.950;6.920;2023-07-28T06:55:37;1.57;;;0.93;;
3601;SDS011;1815;50.950;6.920;2023-07-28T06:58:07;1.50;;;0.70;;
3601;SDS011;1815;50.950;6.920;2023-07-28T07:00:34;3.00;;;0.80;;
3601;SDS011;1815;50.950;6.920;2023-07-28T07:03:00;2.03;;;0.93;;
3601;SDS011;1815;50.950;6.920;2023-07-28T07:05:26;2.20;;;0.70;;
3601;SDS011;1815;50.950;6.920;2023-07-28T07:07:52;1.50;;;0.90;;
3601;SDS011;1815;50.950;6.920;2023-07-28T07:10:19;1.60;;;0.70;;
3601;SDS011;1815;50.950;6.920;2023-07-28T07:12:52;1.70;;;0.80;;
3601;SDS011;1815;50.950;6.920;2023-07-28T07:15:17;1.93;;;0.80;;
3601;SDS011;1815;50.950;6.920;2023-07-28T07:17:43;1.93;;;0.80;;
3601;SDS011;1815;50.950;6.920;2023-07-28T07:20:09;1.50;;;0.80;;
3601;SDS011;1815;50.950;6.920;2023-07-28T07:22:35;1.70;;;0.80;;
3601;SDS011;1815;50.950;6.920;2023-07-28T07:25:02;2.30;;;1.07;;
3601;SDS011;1815;50.950;6.920;2023-07-28T07:27:30;1.80;;;1.10;;
3601;SDS011;1815;50.950;6.920;2023-07-28T07:29:56;1.60;;;0.90;;
3601;SDS011;1815;50.950;6.920;2023-07-28T07:32:22;2.67;;;1.27;;
3601;SDS011;1815;50.950;6.920;2023-07-28T07:34:49;2.17;;;0.80;;
3601;SDS011;1815;50.950;6.920;2023-07-28T07:37:18;3.77;;;1.00;;
3601;SDS011;1815;50.950;6.920;2023-07-28T07:39:44;2.13;;;1.20;;
3601;SDS011;1815;50.950;6.920;2023-07-28T07:42:10;1.63;;;1.20;;
3601;SDS011;1815;50.950;6.920;2023-07-28T07:44:39;1.70;;;0.90;;
3601;SDS011;1815;50.950;6.920;2023-07-28T07:47:12;3.50;;;1.13;;
3601;SDS011;1815;50.950;6.920;2023-07-28T07:49:40;2.37;;;1.03;;
3601;SDS011;1815;50.950;6.920;2023-07-28T07:52:06;2.33;;;1.33;;
3601;SDS011;1815;50.950;6.920;2023-07-28T07:54:34;1.80;;;1.20;;
3601;SDS011;1815;50.950;6.920;2023-07-28T07:57:00;2.00;;;1.30;;
3601;SDS011;1815;50.950;6.920;2023-07-28T07:59:26;2.40;;;1.00;;
3601;SDS011;1815;50.950;6.920;2023-07-28T08:01:55;2.23;;;1.30;;
3601;SDS011;1815;50.950;6.920;2023-07-28T08:04:21;2.43;;;0.90;;
3601;SDS011;1815;50.950;6.920;2023-07-28T08:06:47;1.60;;;0.97;;
3601;SDS011;1815;50.950;6.920;2023-07-28T08:09:13;1.60;;;1.10;;
3601;SDS011;1815;50.950;6.920;2023-07-28T08:11:39;3.20;;;1.10;;
3601;SDS011;1815;50.950;6.920;2023-07-28T08:14:05;2.33;;;1.30;;
3601;SDS011;1815;50.950;6.920;2023-07-28T08:16:30;2.27;;;0.90;;
3601;SDS011;1815;50.950;6.920;2023-07-28T08:18:56;2.03;;;0.97;;
3601;SDS011;1815;50.950;6.920;2023-07-28T08:21:22;1.60;;;1.03;;
3601;SDS011;1815;50.950;6.920;2023-07-28T08:23:48;1.53;;;1.00;;
3601;SDS011;1815;50.950;6.920;2023-07-28T08:26:13;2.07;;;1.00;;
3601;SDS011;1815;50.950;6.920;2023-07-28T08:28:39;1.60;;;1.10;;
3601;SDS011;1815;50.950;6.920;2023-07-28T08:31:07;1.67;;;1.17;;
3601;SDS011;1815;50.950;6.920;2023-07-28T08:33:37;1.87;;;1.13;;
3601;SDS011;1815;50.950;6.920;2023-07-28T08:36:03;2.03;;;0.90;;
3601;SDS011;1815;50.950;6.920;2023-07-28T08:38:29;3.20;;;0.80;;
3601;SDS011;1815;50.950;6.920;2023-07-28T08:40:56;2.10;;;0.80;;
3601;SDS011;1815;50.950;6.920;2023-07-28T08:43:23;1.60;;;0.90;;
3601;SDS011;1815;50.950;6.920;2023-07-28T08:45:50;1.50;;;0.90;;
3601;SDS011;1815;50.950;6.920;2023-07-28T08:48:17;2.00;;;1.07;;
3601;SDS011;1815;50.950;6.920;2023-07-28T08:50:43;1.40;;;1.00;;
3601;SDS011;1815;50.950;6.920;2023-07-28T08:53:09;1.50;;;0.97;;
3601;SDS011;1815;50.950;6.920;2023-07-28T08:55:35;2.73;;;2.20;;
3601;SDS011;1815;50.950;6.920;2023-07-28T08:58:20;1.30;;;0.73;;
3601;SDS011;1815;50.950;6.920;2023-07-28T09:00:49;1.80;;;0.80;;
3601;SDS011;1815;50.950;6.920;2023-07-28T09:03:16;1.40;;;0.60;;
3601;SDS011;1815;50.950;6.920;2023-07-28T09:05:43;3.50;;;0.60;;
3601;SDS011;1815;50.950;6.920;2023-07-28T09:08:11;1.47;;;0.60;;
3601;SDS011;1815;50.950;6.920;2023-07-28T09:10:45;2.50;;;0.97;;
3601;SDS011;1815;50.950;6.920;2023-07-28T09:13:12;1.63;;;0.70;;
3601;SDS011;1815;50.950;6.920;2023-07-28T09:15:38;1.30;;;0.60;;
3601;SDS011;1815;50.950;6.920;2023-07-28T09:18:12;1.40;;;0.60;;
3601;SDS011;1815;50.950;6.920;2023-07-28T09:20:40;1.60;;;0.70;;
3601;SDS011;1815;50.950;6.920;2023-07-28T09:23:07;2.30;;;0.60;;
3601;SDS011;1815;50.950;6.920;2023-07-28T09:25:34;1.40;;;0.53;;
3601;SDS011;1815;50.950;6.920;2023-07-28T09:28:00;1.60;;;0.60;;
3601;SDS011;1815;50.950;6.920;2023-07-28T09:30:27;2.07;;;0.50;;
3601;SDS011;1815;50.950;6.920;2023-07-28T09:33:09;1.20;;;0.50;;
3601;SDS011;1815;50.950;6.920;2023-07-28T09:35:35;1.43;;;0.60;;
3601;SDS011;1815;50.950;6.920;2023-07-28T09:38:11;1.60;;;0.60;;
3601;SDS011;1815;50.950;6.920;2023-07-28T09:40:40;1.30;;;0.70;;
3601;SDS011;1815;50.950;6.920;2023-07-28T09:43:07;1.70;;;0.70;;
3601;SDS011;1815;50.950;6.920;2023-07-28T09:45:32;1.53;;;0.60;;
3601;SDS011;1815;50.950;6.920;2023-07-28T09:48:02;1.30;;;0.50;;
3601;SDS011;1815;50.950;6.920;2023-07-28T09:50:32;1.30;;;0.50;;
3601;SDS011;1815;50.950;6.920;2023-07-28T09:53:01;1.67;;;0.50;;
3601;SDS011;1815;50.950;6.920;2023-07-28T09:55:29;2.07;;;0.50;;
3601;SDS011;1815;50.950;6.920;2023-07-28T09:57:55;1.20;;;0.50;;
3601;SDS011;1815;50.950;6.920;2023-07-28T10:00:23;1.80;;;0.50;;
3601;SDS011;1815;50.950;6.920;2023-07-28T10:02:50;2.60;;;0.53;;
3601;SDS011;1815;50.950;6.920;2023-07-28T10:05:16;1.50;;;0.60;;
3601;SDS011;1815;50.950;6.920;2023-07-28T10:07:45;4.00;;;0.67;;
3601;SDS011;1815;50.950;6.920;2023-07-28T10:10:13;2.13;;;0.90;;
3601;SDS011;1815;50.950;6.920;2023-07-28T10:12:47;2.13;;;0.60;;
3601;SDS011;1815;50.950;6.920;2023-07-28T10:15:17;1.37;;;0.63;;
3601;SDS011;1815;50.950;6.920;2023-07-28T10:23:12;1.30;;;0.60;;
3601;SDS011;1815;50.950;6.920;2023-07-28T10:25:39;1.40;;;0.50;;
3601;SDS011;1815;50.950;6.920;2023-07-28T10:28:06;1.40;;;0.60;;
3601;SDS011;1815;50.950;6.920;2023-07-28T10:30:53;1.70;;;0.67;;
3601;SDS011;1815;50.950;6.920;2023-07-28T10:33:30;1.43;;;0.50;;
3601;SDS011;1815;50.950;6.920;2023-07-28T10:38:59;1.30;;;0.40;;
3601;SDS011;1815;50.950;6.920;2023-07-28T10:41:25;1.30;;;0.53;;
3601;SDS011;1815;50.950;6.920;2023-07-28T10:43:51;1.50;;;0.50;;
3601;SDS011;1815;50.950;6.920;2023-07-28T10:46:18;2.37;;;1.30;;
3601;SDS011;1815;50.950;6.920;2023-07-28T10:48:46;1.90;;;0.97;;
3601;SDS011;1815;50.950;6.920;2023-07-28T10:51:24;1.90;;;0.80;;
3601;SDS011;1815;50.950;6.920;2023-07-28T10:53:56;1.80;;;0.77;;
3601;SDS011;1815;50.950;6.920;2023-07-28T10:56:23;2.00;;;1.10;;
3601;SDS011;1815;50.950;6.920;2023-07-28T10:58:56;1.97;;;0.80;;
3601;SDS011;1815;50.950;6.920;2023-07-28T11:01:24;1.30;;;0.50;;
3601;SDS011;1815;50.950;6.920;2023-07-28T11:04:33;1.93;;;0.50;;
3601;SDS011;1815;50.950;6.920;2023-07-28T11:06:51;3.53;;;0.60;;
3601;SDS011;1815;50.950;6.920;2023-07-28T11:09:17;1.30;;;0.53;;
3601;SDS011;1815;50.950;6.920;2023-07-28T11:11:45;1.40;;;0.60;;
3601;SDS011;1815;50.950;6.920;2023-07-28T11:14:11;1.40;;;0.60;;
3601;SDS011;1815;50.950;6.920;2023-07-28T11:16:40;1.50;;;0.57;;
3601;SDS011;1815;50.950;6.920;2023-07-28T11:19:10;1.73;;;0.70;;
3601;SDS011;1815;50.950;6.920;2023-07-28T11:21:39;1.50;;;0.70;;
3601;SDS011;1815;50.950;6.920;2023-07-28T11:24:08;1.67;;;0.87;;
3601;SDS011;1815;50.950;6.920;2023-07-28T11:26:35;3.20;;;1.90;;
3601;SDS011;1815;50.950;6.920;2023-07-28T11:29:04;1.80;;;0.90;;
3601;SDS011;1815;50.950;6.920;2023-07-28T11:31:37;1.50;;;0.90;;
3601;SDS011;1815;50.950;6.920;2023-07-28T11:34:12;1.70;;;0.83;;
3601;SDS011;1815;50.950;6.920;2023-07-28T11:36:42;1.30;;;0.70;;
3601;SDS011;1815;50.950;6.920;2023-07-28T11:39:07;2.30;;;2.03;;
3601;SDS011;1815;50.950;6.920;2023-07-28T11:41:35;2.27;;;1.67;;
3601;SDS011;1815;50.950;6.920;2023-07-28T11:44:02;2.03;;;1.17;;
3601;SDS011;1815;50.950;6.920;2023-07-28T11:46:46;2.00;;;1.10;;
3601;SDS011;1815;50.950;6.920;2023-07-28T11:49:15;2.57;;;1.43;;
3601;SDS011;1815;50.950;6.920;2023-07-28T11:51:45;1.50;;;0.90;;
3601;SDS011;1815;50.950;6.920;2023-07-28T11:54:12;1.30;;;0.60;;
3601;SDS011;1815;50.950;6.920;2023-07-28T11:56:43;1.30;;;0.60;;
3601;SDS011;1815;50.950;6.920;2023-07-28T11:59:10;1.57;;;0.63;;
3601;SDS011;1815;50.950;6.920;2023-07-28T12:04:23;1.43;;;0.60;;
3601;SDS011;1815;50.950;6.920;2023-07-28T12:07:05;1.27;;;0.53;;
3601;SDS011;1815;50.950;6.920;2023-07-28T12:12:13;1.40;;;0.70;;
3601;SDS011;1815;50.950;6.920;2023-07-28T12:14:43;1.40;;;0.60;;
3601;SDS011;1815;50.950;6.920;2023-07-28T12:17:11;1.40;;;0.60;;
3601;SDS011;1815;50.950;6.920;2023-07-28T12:19:42;1.60;;;0.60;;
3601;SDS011;1815;50.950;6.920;2023-07-28T12:22:20;6.60;;;0.80;;
3601;SDS011;1815;50.950;6.920;2023-07-28T12:24:45;2.07;;;1.37;;
3601;SDS011;1815;50.950;6.920;2023-07-28T12:27:11;2.07;;;1.57;;
3601;SDS011;1815;50.950;6.920;2023-07-28T12:29:38;1.90;;;1.23;;
3601;SDS011;1815;50.950;6.920;2023-07-28T12:32:04;1.70;;;0.80;;
3601;SDS011;1815;50.950;6.920;2023-07-28T12:34:30;1.30;;;0.60;;
3601;SDS011;1815;50.950;6.920;2023-07-28T12:36:56;1.40;;;0.70;;
3601;SDS011;1815;50.950;6.920;2023-07-28T12:39:22;1.60;;;0.70;;
3601;SDS011;1815;50.950;6.920;2023-07-28T12:41:48;1.40;;;0.60;;
3601;SDS011;1815;50.950;6.920;2023-07-28T12:44:14;2.10;;;1.20;;
3601;SDS011;1815;50.950;6.920;2023-07-28T12:46:44;2.13;;;1.80;;
3601;SDS011;1815;50.950;6.920;2023-07-28T12:49:10;2.47;;;1.50;;
3601;SDS011;1815;50.950;6.920;2023-07-28T12:51:35;1.47;;;0.70;;
3601;SDS011;1815;50.950;6.920;2023-07-28T12:54:01;1.30;;;0.60;;
3601;SDS011;1815;50.950;6.920;2023-07-28T12:56:27;1.50;;;0.70;;
3601;SDS011;1815;50.950;6.920;2023-07-28T12:58:53;1.70;;;0.87;;
3601;SDS011;1815;50.950;6.920;2023-07-28T13:01:18;1.67;;;0.70;;
3601;SDS011;1815;50.950;6.920;2023-07-28T13:03:44;1.60;;;0.60;;
3601;SDS011;1815;50.950;6.920;2023-07-28T13:06:10;2.60;;;0.60;;
3601;SDS011;1815;50.950;6.920;2023-07-28T13:08:35;1.60;;;0.60;;
3601;SDS011;1815;50.950;6.920;2023-07-28T13:11:01;1.60;;;0.50;;
3601;SDS011;1815;50.950;6.920;2023-07-28T13:13:28;1.20;;;0.50;;
3601;SDS011;1815;50.950;6.920;2023-07-28T13:15:55;1.50;;;0.60;;
3601;SDS011;1815;50.950;6.920;2023-07-28T13:18:22;2.13;;;0.60;;
3601;SDS011;1815;50.950;6.920;2023-07-28T13:20:48;1.30;;;0.50;;
3601;SDS011;1815;50.950;6.920;2023-07-28T13:23:14;1.50;;;0.50;;
3601;SDS011;1815;50.950;6.920;2023-07-28T13:25:40;1.30;;;0.60;;
3601;SDS011;1815;50.950;6.920;2023-07-28T13:28:06;1.77;;;0.50;;
3601;SDS011;1815;50.950;6.920;2023-07-28T13:30:32;1.87;;;1.20;;
3601;SDS011;1815;50.950;6.920;2023-07-28T13:32:57;1.77;;;0.97;;
3601;SDS011;1815;50.950;6.920;2023-07-28T13:35:23;2.00;;;0.80;;
3601;SDS011;1815;50.950;6.920;2023-07-28T13:37:49;1.90;;;0.90;;
3601;SDS011;1815;50.950;6.920;2023-07-28T13:40:15;1.40;;;0.70;;
3601;SDS011;1815;50.950;6.920;2023-07-28T13:42:41;1.30;;;0.60;;
3601;SDS011;1815;50.950;6.920;2023-07-28T13:45:08;1.20;;;0.57;;
3601;SDS011;1815;50.950;6.920;2023-07-28T13:47:34;1.40;;;0.60;;
3601;SDS011;1815;50.950;6.920;2023-07-28T13:49:59;1.97;;;0.97;;
3601;SDS011;1815;50.950;6.920;2023-07-28T13:52:26;2.73;;;1.13;;
3601;SDS011;1815;50.950;6.920;2023-07-28T13:54:51;6.00;;;5.13;;
3601;SDS011;1815;50.950;6.920;2023-07-28T13:57:17;6.70;;;5.83;;
3601;SDS011;1815;50.950;6.920;2023-07-28T13:59:43;4.80;;;3.43;;
3601;SDS011;1815;50.950;6.920;2023-07-28T14:02:09;3.87;;;2.40;;
3601;SDS011;1815;50.950;6.920;2023-07-28T14:04:34;2.90;;;1.83;;
3601;SDS011;1815;50.950;6.920;2023-07-28T14:07:00;2.03;;;1.20;;
3601;SDS011;1815;50.950;6.920;2023-07-28T14:09:26;1.97;;;0.70;;
3601;SDS011;1815;50.950;6.920;2023-07-28T14:11:51;1.30;;;0.50;;
3601;SDS011;1815;50.950;6.920;2023-07-28T14:14:17;1.57;;;0.50;;
3601;SDS011;1815;50.950;6.920;2023-07-28T14:16:43;1.20;;;0.40;;
3601;SDS011;1815;50.950;6.920;2023-07-28T14:19:09;1.47;;;0.50;;
3601;SDS011;1815;50.950;6.920;2023-07-28T14:21:34;1.80;;;0.70;;
3601;SDS011;1815;50.950;6.920;2023-07-28T14:24:03;1.60;;;0.60;;
3601;SDS011;1815;50.950;6.920;2023-07-28T14:26:30;1.17;;;0.40;;
3601;SDS011;1815;50.950;6.920;2023-07-28T14:28:56;1.10;;;0.30;;
3601;SDS011;1815;50.950;6.920;2023-07-28T14:31:22;1.53;;;0.70;;
3601;SDS011;1815;50.950;6.920;2023-07-28T14:33:47;1.30;;;0.40;;
3601;SDS011;1815;50.950;6.920;2023-07-28T14:36:13;1.20;;;0.33;;
3601;SDS011;1815;50.950;6.920;2023-07-28T14:38:39;1.10;;;0.30;;
3601;SDS011;1815;50.950;6.920;2023-07-28T14:41:05;1.70;;;0.70;;
3601;SDS011;1815;50.950;6.920;2023-07-28T14:43:30;1.77;;;0.60;;
3601;SDS011;1815;50.950;6.920;2023-07-28T14:45:57;1.40;;;0.60;;
3601;SDS011;1815;50.950;6.920;2023-07-28T14:48:23;1.20;;;0.40;;
3601;SDS011;1815;50.950;6.920;2023-07-28T14:50:48;2.47;;;1.00;;
3601;SDS011;1815;50.950;6.920;2023-07-28T14:53:33;2.83;;;1.47;;
3601;SDS011;1815;50.950;6.920;2023-07-28T14:56:01;3.20;;;1.60;;
3601;SDS011;1815;50.950;6.920;2023-07-28T14:58:28;1.80;;;0.80;;
3601;SDS011;1815;50.950;6.920;2023-07-28T15:00:54;1.40;;;0.63;;
3601;SDS011;1815;50.950;6.920;2023-07-28T15:03:20;1.67;;;0.83;;
3601;SDS011;1815;50.950;6.920;2023-07-28T15:05:46;1.70;;;0.80;;
3601;SDS011;1815;50.950;6.920;2023-07-28T15:08:13;2.30;;;1.10;;
3601;SDS011;1815;50.950;6.920;2023-07-28T15:10:39;2.07;;;0.70;;
3601;SDS011;1815;50.950;6.920;2023-07-28T15:13:06;3.87;;;0.73;;
3601;SDS011;1815;50.950;6.920;2023-07-28T15:15:35;1.60;;;0.40;;
3601;SDS011;1815;50.950;6.920;2023-07-28T15:18:01;1.33;;;0.40;;
3601;SDS011;1815;50.950;6.920;2023-07-28T15:20:26;1.20;;;0.40;;
3601;SDS011;1815;50.950;6.920;2023-07-28T15:22:52;1.20;;;0.40;;
3601;SDS011;1815;50.950;6.920;2023-07-28T15:25:18;1.67;;;0.50;;
3601;SDS011;1815;50.950;6.920;2023-07-28T15:27:43;2.93;;;1.00;;
3601;SDS011;1815;50.950;6.920;2023-07-28T15:30:09;1.90;;;1.10;;
3601;SDS011;1815;50.950;6.920;2023-07-28T15:32:35;2.43;;;0.90;;
3601;SDS011;1815;50.950;6.920;2023-07-28T15:35:02;2.37;;;0.80;;
3601;SDS011;1815;50.950;6.920;2023-07-28T15:37:28;1.63;;;0.70;;
3601;SDS011;1815;50.950;6.920;2023-07-28T15:39:55;1.60;;;0.60;;
3601;SDS011;1815;50.950;6.920;2023-07-28T15:42:21;1.30;;;0.50;;
3601;SDS011;1815;50.950;6.920;2023-07-28T15:44:47;1.80;;;0.50;;
3601;SDS011;1815;50.950;6.920;2023-07-28T15:47:14;1.20;;;0.40;;
3601;SDS011;1815;50.950;6.920;2023-07-28T15:49:40;1.10;;;0.40;;